createdAt,value
2023-03-04T00:00:37.936Z,28.20
2023-03-04T00:03:21.821Z,30.23
2023-03-04T00:06:07.751Z,27.67
2023-03-04T00:08:51.563Z,30.93
2023-03-04T00:11:35.662Z,29.43
2023-03-04T00:14:19.425Z,26.33
2023-03-04T00:17:04.511Z,29.00
2023-03-04T00:19:48.643Z,23.00
2023-03-04T00:22:33.748Z,24.13
2023-03-04T00:25:17.546Z,24.30
2023-03-04T00:28:01.320Z,24.23
2023-03-04T00:30:45.099Z,24.47
2023-03-04T00:33:28.905Z,22.27
2023-03-04T00:36:12.720Z,24.30
2023-03-04T00:38:57.866Z,26.73
2023-03-04T00:41:42.125Z,25.33
2023-03-04T00:44:25.900Z,29.03
2023-03-04T00:47:09.724Z,30.23
2023-03-04T00:49:53.464Z,27.10
2023-03-04T00:52:37.449Z,28.50
2023-03-04T00:55:22.589Z,26.90
2023-03-04T00:58:06.344Z,27.90
2023-03-04T01:00:50.131Z,29.27
2023-03-04T01:03:35.563Z,24.83
2023-03-04T01:06:19.294Z,27.20
2023-03-04T01:09:03.136Z,29.33
2023-03-04T01:11:48.551Z,28.00
2023-03-04T01:14:32.315Z,28.47
2023-03-04T01:17:16.090Z,28.40
2023-03-04T01:19:59.911Z,30.90
2023-03-04T01:22:43.662Z,32.30
2023-03-04T01:25:27.518Z,32.37
2023-03-04T01:28:12.750Z,27.10
2023-03-04T01:30:58.277Z,30.23
2023-03-04T01:33:42.031Z,32.50
2023-03-04T01:36:27.140Z,32.40
2023-03-04T01:39:10.893Z,28.90
2023-03-04T01:41:54.639Z,30.57
2023-03-04T01:44:39.841Z,30.23
2023-03-04T01:47:27.322Z,30.43
2023-03-04T01:50:18.832Z,29.53
2023-03-04T01:53:02.920Z,30.40
2023-03-04T01:55:46.910Z,28.97
2023-03-04T01:58:32.167Z,29.20
2023-03-04T02:01:17.261Z,27.70
2023-03-04T02:04:01.599Z,28.33
2023-03-04T02:06:47.722Z,31.00
2023-03-04T02:09:33.199Z,27.20
2023-03-04T02:12:18.742Z,27.57
2023-03-04T02:15:02.585Z,30.77
2023-03-04T02:17:51.287Z,29.00
2023-03-04T02:20:45.064Z,31.73
2023-03-04T02:23:34.289Z,31.27
2023-03-04T02:26:21.218Z,31.07
2023-03-04T02:29:07.775Z,29.70
2023-03-04T02:31:53.155Z,31.23
2023-03-04T02:34:37.838Z,28.80
2023-03-04T02:37:21.812Z,31.03
2023-03-04T02:40:15.026Z,30.50
2023-03-04T02:43:02.161Z,30.40
2023-03-04T02:45:47.652Z,30.83
2023-03-04T02:48:31.727Z,29.13
2023-03-04T02:51:15.545Z,28.80
2023-03-04T02:53:59.559Z,30.43
2023-03-04T02:56:46.789Z,31.57
2023-03-04T02:59:32.982Z,32.13
2023-03-04T03:02:16.768Z,31.97
2023-03-04T03:05:00.608Z,27.70
2023-03-04T03:07:44.825Z,30.87
2023-03-04T03:10:29.650Z,34.23
2023-03-04T03:13:13.632Z,31.53
2023-03-04T03:15:59.246Z,35.40
2023-03-04T03:18:43.093Z,34.93
2023-03-04T03:21:26.870Z,34.70
2023-03-04T03:24:10.730Z,34.80
2023-03-04T03:26:54.581Z,33.37
2023-03-04T03:29:38.554Z,31.17
2023-03-04T03:32:26.327Z,34.47
2023-03-04T03:35:10.473Z,34.47
2023-03-04T03:37:54.220Z,33.07
2023-03-04T03:40:38.144Z,31.97
2023-03-04T03:43:21.869Z,34.57
2023-03-04T03:46:06.018Z,33.17
2023-03-04T03:48:51.241Z,32.97
2023-03-04T03:51:35.112Z,34.33
2023-03-04T03:54:18.894Z,36.97
2023-03-04T03:57:02.647Z,32.60
2023-03-04T03:59:46.469Z,33.17
2023-03-04T04:02:30.372Z,33.97
2023-03-04T04:05:16.108Z,34.90
2023-03-04T04:07:59.894Z,36.03
2023-03-04T04:10:44.572Z,34.83
2023-03-04T04:13:28.386Z,32.87
2023-03-04T04:16:12.889Z,34.70
2023-03-04T04:18:56.761Z,33.63
2023-03-04T04:21:41.837Z,35.27
2023-03-04T04:24:25.741Z,35.80
2023-03-04T04:27:09.657Z,35.67
2023-03-04T04:29:53.471Z,35.73
2023-03-04T04:32:37.259Z,35.10
2023-03-04T04:35:21.290Z,31.47
2023-03-04T04:38:06.614Z,35.30
2023-03-04T04:40:50.366Z,34.63
2023-03-04T04:43:34.206Z,33.77
2023-03-04T04:46:19.111Z,34.93
2023-03-04T04:49:03.377Z,35.17
2023-03-04T04:51:47.823Z,32.63
2023-03-04T04:54:33.334Z,31.70
2023-03-04T04:57:17.270Z,35.87
2023-03-04T05:00:01.137Z,38.00
2023-03-04T05:02:47.452Z,36.47
2023-03-04T05:05:31.322Z,39.83
2023-03-04T05:08:15.123Z,43.00
2023-03-04T05:11:00.387Z,39.03
2023-03-04T05:13:44.436Z,38.50
2023-03-04T05:16:28.299Z,41.10
2023-03-04T05:19:12.375Z,39.30
2023-03-04T05:21:56.228Z,39.23
2023-03-04T05:24:40.023Z,38.90
2023-03-04T05:27:25.282Z,39.57
2023-03-04T05:30:10.625Z,43.43
2023-03-04T05:32:54.679Z,40.80
2023-03-04T05:35:39.513Z,40.43
2023-03-04T05:38:24.144Z,37.70
2023-03-04T05:41:08.819Z,41.60
2023-03-04T05:43:54.029Z,39.90
2023-03-04T05:46:38.021Z,40.73
2023-03-04T05:49:21.971Z,42.90
2023-03-04T05:52:05.638Z,41.97
2023-03-04T05:54:49.399Z,41.00
2023-03-04T05:57:33.412Z,40.83
2023-03-04T06:00:19.153Z,40.63
2023-03-04T06:03:03.021Z,43.03
2023-03-04T06:05:47.115Z,38.40
2023-03-04T06:08:30.976Z,41.10
2023-03-04T06:11:14.873Z,37.70
2023-03-04T06:13:58.869Z,40.83
2023-03-04T06:16:44.122Z,38.40
2023-03-04T06:19:27.891Z,37.97
2023-03-04T06:22:12.413Z,38.07
2023-03-04T06:24:56.593Z,38.60
2023-03-04T06:27:40.616Z,41.87
2023-03-04T06:30:24.840Z,39.47
2023-03-04T06:33:10.242Z,40.63
2023-03-04T06:35:56.466Z,39.50
2023-03-04T06:38:40.492Z,38.47
2023-03-04T06:41:24.333Z,39.37
2023-03-04T06:44:08.493Z,35.30
2023-03-04T06:46:52.517Z,36.13
2023-03-04T06:49:37.779Z,36.37
2023-03-04T06:52:21.619Z,36.77
2023-03-04T06:55:06.584Z,40.43
2023-03-04T06:57:50.360Z,36.80
2023-03-04T07:00:34.358Z,34.90
2023-03-04T07:03:18.274Z,35.70
2023-03-04T07:06:03.466Z,37.00
2023-03-04T07:08:48.008Z,36.97
2023-03-04T07:11:31.918Z,34.67
2023-03-04T07:14:15.861Z,34.23
2023-03-04T07:16:59.894Z,38.27
2023-03-04T07:19:44.787Z,35.43
2023-03-04T07:22:30.046Z,36.20
2023-03-04T07:25:13.854Z,33.57
2023-03-04T07:27:57.692Z,32.97
2023-03-04T07:30:41.541Z,32.40
2023-03-04T07:33:25.319Z,33.87
2023-03-04T07:36:09.349Z,29.37
2023-03-04T07:38:55.946Z,33.57
2023-03-04T07:41:39.885Z,32.87
2023-03-04T07:44:23.630Z,30.00
2023-03-04T07:47:07.501Z,30.67
2023-03-04T07:49:51.621Z,30.57
2023-03-04T07:52:38.999Z,31.87
2023-03-04T07:55:24.222Z,26.83
2023-03-04T07:58:07.998Z,30.60
2023-03-04T08:00:51.759Z,26.93
2023-03-04T08:03:35.748Z,30.50
2023-03-04T08:06:21.603Z,27.50
2023-03-04T08:09:07.748Z,30.97
2023-03-04T08:11:52.962Z,31.60
2023-03-04T08:14:36.833Z,27.43
2023-03-04T08:17:20.606Z,29.07
2023-03-04T08:20:04.817Z,31.37
2023-03-04T08:22:48.664Z,28.10
2023-03-04T08:25:32.548Z,28.80
2023-03-04T08:28:18.556Z,27.33
2023-03-04T08:31:02.366Z,26.37
2023-03-04T08:33:46.838Z,27.30
2023-03-04T08:36:30.722Z,30.20
2023-03-04T08:39:16.716Z,29.47
2023-03-04T08:42:00.622Z,35.70
2023-03-04T08:44:45.902Z,37.17
2023-03-04T08:47:29.755Z,28.77
2023-03-04T08:50:13.691Z,29.17
2023-03-04T08:52:57.604Z,30.47
2023-03-04T08:55:42.264Z,34.03
2023-03-04T08:58:26.226Z,27.20
2023-03-04T09:01:13.383Z,26.73
2023-03-04T09:03:57.382Z,31.40
2023-03-04T09:06:41.552Z,31.53
2023-03-04T09:09:25.448Z,26.53
2023-03-04T09:12:09.342Z,26.20
2023-03-04T09:15:08.328Z,28.23
2023-03-04T09:17:55.276Z,27.57
2023-03-04T09:20:39.109Z,34.20
2023-03-04T09:23:23.443Z,24.83
2023-03-04T09:26:16.485Z,25.27
2023-03-04T09:29:02.392Z,23.27
2023-03-04T09:31:46.654Z,27.10
2023-03-04T09:34:32.010Z,24.07
2023-03-04T09:37:15.866Z,22.10
2023-03-04T09:39:59.614Z,23.07
2023-03-04T09:42:49.093Z,23.43
2023-03-04T09:45:39.375Z,20.63
2023-03-04T09:48:26.233Z,18.93
2023-03-04T09:51:21.420Z,17.47
2023-03-04T09:54:09.195Z,20.73
2023-03-04T09:56:57.287Z,17.30
2023-03-04T09:59:47.296Z,15.77
2023-03-04T10:02:43.336Z,15.83
2023-03-04T10:05:28.883Z,15.37
2023-03-04T10:08:37.035Z,18.67
2023-03-04T10:11:27.769Z,14.27
2023-03-04T10:14:33.833Z,14.13
2023-03-04T10:17:23.779Z,10.80
2023-03-04T10:20:13.818Z,14.67
2023-03-04T10:23:00.027Z,13.17
2023-03-04T10:25:51.803Z,14.47
2023-03-04T10:28:36.707Z,12.90
2023-03-04T10:31:28.684Z,14.47
2023-03-04T10:34:13.699Z,15.30
2023-03-04T10:37:00.653Z,13.93
2023-03-04T10:39:46.735Z,22.00
2023-03-04T10:42:37.628Z,16.47
2023-03-04T10:45:23.668Z,25.97
2023-03-04T10:48:08.037Z,23.13
2023-03-04T10:50:51.985Z,26.07
2023-03-04T10:53:40.696Z,26.13
2023-03-04T10:56:34.971Z,28.33
2023-03-04T10:59:41.996Z,22.43
2023-03-04T11:02:28.164Z,20.80
2023-03-04T11:05:19.646Z,21.27
2023-03-04T11:08:03.475Z,19.47
2023-03-04T11:10:47.656Z,20.63
2023-03-04T11:13:32.802Z,20.80
2023-03-04T11:16:27.925Z,18.77
2023-03-04T11:19:17.920Z,18.77
2023-03-04T11:22:02.911Z,17.63
2023-03-04T11:24:52.597Z,15.77
2023-03-04T11:27:43.234Z,16.60
2023-03-04T11:30:42.785Z,18.23
2023-03-04T11:33:37.329Z,15.93
2023-03-04T11:36:32.690Z,14.33
2023-03-04T11:39:23.200Z,16.13
2023-03-04T11:42:14.601Z,15.57
2023-03-04T11:44:58.812Z,14.37
2023-03-04T11:48:04.503Z,15.33
2023-03-04T11:50:54.799Z,15.73
2023-03-04T11:53:50.843Z,15.53
2023-03-04T11:56:40.899Z,15.83
2023-03-04T11:59:52.268Z,14.87
2023-03-04T12:02:44.747Z,14.97
2023-03-04T12:05:36.416Z,13.73
2023-03-04T12:08:44.490Z,11.83
2023-03-04T12:11:40.322Z,12.70
2023-03-04T12:14:30.758Z,11.13
2023-03-04T12:17:40.468Z,12.20
2023-03-04T12:20:38.435Z,12.87
2023-03-04T12:23:34.915Z,11.43
2023-03-04T12:26:34.435Z,13.33
2023-03-04T12:29:27.941Z,10.80
2023-03-04T12:32:19.535Z,11.23
2023-03-04T12:35:21.494Z,12.40
2023-03-04T12:38:20.890Z,14.13
2023-03-04T12:41:21.384Z,11.63
2023-03-04T12:44:17.032Z,12.33
2023-03-04T12:47:18.614Z,11.33
2023-03-04T12:50:22.406Z,8.43
2023-03-04T12:53:17.529Z,10.07
2023-03-04T12:56:03.623Z,11.80
2023-03-04T12:58:47.646Z,11.67
2023-03-04T13:01:40.096Z,9.40
2023-03-04T13:04:29.751Z,11.27
2023-03-04T13:07:20.218Z,11.40
2023-03-04T13:10:11.906Z,9.30
2023-03-04T13:12:58.186Z,9.97
2023-03-04T13:15:42.207Z,11.03
2023-03-04T13:18:35.599Z,10.10
2023-03-04T13:21:25.456Z,9.93
2023-03-04T13:24:46.019Z,11.80
2023-03-04T13:27:51.913Z,9.23
2023-03-04T13:31:04.746Z,11.10
2023-03-04T13:34:06.529Z,12.13
2023-03-04T13:36:57.290Z,9.93
2023-03-04T13:39:41.238Z,14.17
2023-03-04T13:42:42.988Z,11.57
2023-03-04T13:45:38.962Z,11.23
2023-03-04T13:48:28.590Z,10.23
2023-03-04T13:51:28.932Z,13.37
2023-03-04T13:54:24.107Z,8.17
2023-03-04T13:57:20.654Z,7.80
2023-03-04T14:00:06.842Z,9.80
2023-03-04T14:02:52.470Z,14.50
2023-03-04T14:05:36.421Z,11.43
2023-03-04T14:08:22.439Z,9.37
2023-03-04T14:11:06.519Z,8.47
2023-03-04T14:13:50.770Z,9.93
2023-03-04T14:16:40.964Z,11.20
2023-03-04T14:19:29.654Z,15.07
2023-03-04T14:22:23.149Z,17.73
2023-03-04T14:25:22.303Z,13.13
2023-03-04T14:28:11.767Z,10.67
2023-03-04T14:30:58.388Z,13.53
2023-03-04T14:33:47.127Z,10.60
2023-03-04T14:36:33.912Z,11.83
2023-03-04T14:39:20.098Z,14.67
2023-03-04T14:42:11.566Z,13.17
2023-03-04T14:44:59.800Z,15.27
2023-03-04T14:47:47.645Z,17.27
2023-03-04T14:50:31.651Z,20.87
2023-03-04T14:53:17.977Z,13.90
2023-03-04T14:56:04.669Z,9.50
2023-03-04T14:58:57.161Z,11.67
2023-03-04T15:01:40.980Z,12.10
2023-03-04T15:04:24.958Z,10.60
2023-03-04T15:07:19.844Z,20.63
2023-03-04T15:10:08.360Z,27.83
2023-03-04T15:12:54.398Z,20.10
2023-03-04T15:15:42.134Z,34.10
2023-03-04T15:18:27.308Z,23.80
2023-03-04T15:21:36.933Z,29.27
2023-03-04T15:24:21.705Z,42.37
2023-03-04T15:27:08.316Z,26.87
2023-03-04T15:29:56.060Z,25.00
2023-03-04T15:32:41.416Z,23.27
2023-03-04T15:35:26.566Z,22.30
2023-03-04T15:38:13.954Z,22.03
2023-03-04T15:40:58.510Z,18.77
2023-03-04T15:43:42.468Z,25.50
2023-03-04T15:46:26.378Z,22.67
2023-03-04T15:49:12.048Z,22.53
2023-03-04T15:51:55.774Z,23.03
2023-03-04T15:54:39.582Z,23.33
2023-03-04T15:57:26.073Z,20.43
2023-03-04T16:00:12.726Z,22.00
2023-03-04T16:02:56.557Z,19.37
2023-03-04T16:05:42.105Z,56.97
2023-03-04T16:08:26.358Z,24.87
2023-03-04T16:11:16.550Z,17.50
2023-03-04T16:14:00.326Z,16.70
2023-03-04T16:16:46.612Z,26.53
2023-03-04T16:19:30.530Z,25.03
2023-03-04T16:22:17.640Z,22.70
2023-03-04T16:25:01.463Z,26.37
2023-03-04T16:27:45.998Z,22.77
2023-03-04T16:30:29.760Z,22.00
2023-03-04T16:33:15.166Z,23.10
2023-03-04T16:35:59.360Z,33.90
2023-03-04T16:38:44.753Z,40.83
2023-03-04T16:41:30.779Z,26.40
2023-03-04T16:44:16.078Z,46.53
2023-03-04T16:46:59.896Z,42.10
2023-03-04T16:49:44.113Z,55.10
2023-03-04T16:52:32.050Z,29.53
2023-03-04T16:55:21.541Z,26.43
2023-03-04T16:58:08.007Z,43.27
2023-03-04T17:00:52.152Z,45.30
2023-03-04T17:03:36.055Z,46.13
2023-03-04T17:06:20.855Z,42.73
2023-03-04T17:09:04.791Z,27.03
2023-03-04T17:11:50.140Z,34.27
2023-03-04T17:14:34.007Z,31.70
2023-03-04T17:17:18.569Z,27.27
2023-03-04T17:20:06.150Z,29.93
2023-03-04T17:22:50.473Z,39.93
2023-03-04T17:25:34.557Z,105.90
2023-03-04T17:28:19.656Z,49.67
2023-03-04T17:31:09.367Z,40.83
2023-03-04T17:33:53.238Z,23.20
2023-03-04T17:36:37.530Z,37.13
2023-03-04T17:39:21.481Z,31.93
2023-03-04T17:42:07.099Z,38.63
2023-03-04T17:44:52.498Z,43.33
2023-03-04T17:47:36.635Z,43.00
2023-03-04T17:50:21.242Z,40.07
2023-03-04T17:53:05.234Z,31.57
2023-03-04T17:55:52.589Z,33.20
2023-03-04T17:58:37.838Z,28.20
2023-03-04T18:01:23.633Z,34.93
2023-03-04T18:04:07.734Z,38.77
2023-03-04T18:06:51.540Z,29.67
2023-03-04T18:09:35.677Z,35.30
2023-03-04T18:12:19.559Z,31.97
2023-03-04T18:15:03.376Z,23.53
2023-03-04T18:17:50.337Z,26.47
2023-03-04T18:20:34.575Z,24.20
2023-03-04T18:23:18.596Z,19.30
2023-03-04T18:26:04.509Z,21.67
2023-03-04T18:28:48.390Z,35.67
2023-03-04T18:31:33.074Z,22.43
2023-03-04T18:34:18.269Z,21.90
2023-03-04T18:37:02.129Z,28.10
2023-03-04T18:39:45.944Z,18.67
2023-03-04T18:42:29.811Z,29.90
2023-03-04T18:45:15.068Z,22.20
2023-03-04T18:48:00.736Z,27.17
2023-03-04T18:50:46.067Z,28.33
2023-03-04T18:53:30.979Z,35.73
2023-03-04T18:56:19.619Z,38.43
2023-03-04T18:59:03.706Z,26.13
2023-03-04T19:01:48.517Z,35.27
2023-03-04T19:04:32.860Z,29.87
2023-03-04T19:07:18.051Z,33.80
2023-03-04T19:10:02.051Z,24.93
2023-03-04T19:12:47.503Z,23.33
2023-03-04T19:15:31.388Z,25.80
2023-03-04T19:18:15.172Z,27.83
2023-03-04T19:21:02.986Z,25.13
2023-03-04T19:23:49.504Z,24.27
2023-03-04T19:26:33.392Z,25.93
2023-03-04T19:29:17.309Z,26.70
2023-03-04T19:32:01.264Z,26.80
2023-03-04T19:34:45.332Z,26.73
2023-03-04T19:37:29.370Z,32.63
2023-03-04T19:40:15.158Z,27.13
2023-03-04T19:42:59.102Z,25.63
2023-03-04T19:45:43.237Z,27.77
2023-03-04T19:48:27.076Z,26.57
2023-03-04T19:51:18.464Z,24.20
2023-03-04T19:54:02.792Z,25.90
2023-03-04T19:56:48.216Z,24.70
2023-03-04T19:59:32.167Z,25.53
2023-03-04T20:02:15.999Z,27.93
2023-03-04T20:05:00.328Z,27.77
2023-03-04T20:07:45.061Z,26.03
2023-03-04T20:10:32.957Z,30.83
2023-03-04T20:13:18.270Z,31.13
2023-03-04T20:16:02.200Z,30.53
2023-03-04T20:18:46.101Z,23.80
2023-03-04T20:21:32.701Z,32.67
2023-03-04T20:24:18.557Z,29.23
2023-03-04T20:27:02.454Z,30.23
2023-03-04T20:29:49.090Z,26.37
2023-03-04T20:32:33.102Z,24.40
2023-03-04T20:35:17.124Z,30.17
2023-03-04T20:38:01.083Z,26.03
2023-03-04T20:40:44.834Z,31.30
2023-03-04T20:43:29.705Z,37.03
2023-03-04T20:46:29.960Z,29.90
2023-03-04T20:49:16.288Z,34.00
2023-03-04T20:52:06.237Z,31.43
2023-03-04T20:54:50.121Z,35.10
2023-03-04T20:57:34.044Z,41.43
2023-03-04T21:00:18.383Z,45.30
2023-03-04T21:03:03.666Z,40.13
2023-03-04T21:05:47.456Z,53.10
2023-03-04T21:08:31.780Z,61.47
2023-03-04T21:11:17.863Z,58.57
2023-03-04T21:14:01.854Z,57.73
2023-03-04T21:16:45.645Z,58.50
2023-03-04T21:19:33.161Z,55.13
2023-03-04T21:22:20.184Z,50.80
2023-03-04T21:25:03.926Z,56.03
2023-03-04T21:27:47.718Z,74.10
2023-03-04T21:30:31.529Z,68.47
2023-03-04T21:33:19.256Z,73.00
2023-03-04T21:36:04.942Z,63.40
2023-03-04T21:38:48.891Z,60.57
2023-03-04T21:41:32.979Z,49.53
2023-03-04T21:44:27.954Z,41.40
2023-03-04T21:47:12.903Z,42.70
2023-03-04T21:49:56.946Z,46.07
2023-03-04T21:52:42.709Z,42.83
2023-03-04T21:55:26.766Z,38.53
2023-03-04T21:58:10.700Z,40.07
2023-03-04T22:00:54.922Z,39.80
2023-03-04T22:03:39.050Z,38.03
2023-03-04T22:06:24.554Z,33.53
2023-03-04T22:09:09.933Z,30.33
2023-03-04T22:11:53.789Z,31.80
2023-03-04T22:14:37.912Z,32.73
2023-03-04T22:17:22.033Z,34.77
2023-03-04T22:20:07.218Z,34.60
2023-03-04T22:22:51.130Z,31.27
2023-03-04T22:25:38.849Z,39.70
2023-03-04T22:28:25.164Z,39.37
2023-03-04T22:31:16.955Z,37.77
2023-03-04T22:34:02.704Z,31.83
2023-03-04T22:36:48.880Z,27.10
2023-03-04T22:39:32.680Z,28.43
2023-03-04T22:42:17.975Z,25.53
2023-03-04T22:45:01.887Z,32.27
2023-03-04T22:47:52.304Z,32.37
2023-03-04T22:50:36.854Z,36.90
2023-03-04T22:53:20.692Z,35.27
2023-03-04T22:56:04.769Z,36.47
2023-03-04T22:58:50.128Z,40.93
2023-03-04T23:01:33.903Z,38.00
2023-03-04T23:04:17.819Z,34.73
2023-03-04T23:07:01.597Z,31.07
2023-03-04T23:09:45.384Z,26.23
2023-03-04T23:12:29.118Z,25.47
2023-03-04T23:15:15.845Z,32.23
2023-03-04T23:18:00.126Z,22.13
2023-03-04T23:20:44.303Z,30.20
2023-03-04T23:23:28.055Z,19.67
2023-03-04T23:26:16.422Z,24.03
2023-03-04T23:29:01.551Z,28.00
2023-03-04T23:31:46.840Z,38.23
2023-03-04T23:34:31.006Z,39.70
2023-03-04T23:37:14.847Z,28.57
2023-03-04T23:39:58.583Z,22.83
2023-03-04T23:42:42.451Z,23.10
2023-03-04T23:45:26.253Z,19.17
2023-03-04T23:48:11.396Z,17.07
2023-03-04T23:50:55.442Z,20.80
2023-03-04T23:53:40.039Z,20.80
2023-03-04T23:56:25.393Z,19.37
2023-03-04T23:59:09.119Z,20.17
